sensor_id;sensor_type;location;lat;lon;timestamp;P1;durP1;ratioP1;P2;durP2;ratioP2
10333;SDS011;5212;47.892;16.406;2024-01-07T00:01:56;3.27;;;2.43;;
10333;SDS011;5212;47.892;16.406;2024-01-07T00:04:22;3.50;;;2.30;;
10333;SDS011;5212;47.892;16.406;2024-01-07T00:06:48;3.30;;;2.20;;
10333;SDS011;5212;47.892;16.406;2024-01-07T00:09:15;3.43;;;2.47;;
10333;SDS011;5212;47.892;16.406;2024-01-07T00:11:41;3.27;;;2.70;;
10333;SDS011;5212;47.892;16.406;2024-01-07T00:14:08;4.03;;;2.90;;
10333;SDS011;5212;47.892;16.406;2024-01-07T00:16:34;5.33;;;3.10;;
10333;SDS011;5212;47.892;16.406;2024-01-07T00:19:00;4.50;;;2.90;;
10333;SDS011;5212;47.892;16.406;2024-01-07T00:21:26;4.53;;;3.17;;
10333;SDS011;5212;47.892;16.406;2024-01-07T00:23:53;3.97;;;2.87;;
10333;SDS011;5212;47.892;16.406;2024-01-07T00:26:19;5.33;;;3.30;;
10333;SDS011;5212;47.892;16.406;2024-01-07T00:28:45;4.30;;;3.10;;
10333;SDS011;5212;47.892;16.406;2024-01-07T00:31:11;4.90;;;3.27;;
10333;SDS011;5212;47.892;16.406;2024-01-07T00:33:37;5.73;;;3.47;;
10333;SDS011;5212;47.892;16.406;2024-01-07T00:36:04;6.87;;;3.10;;
10333;SDS011;5212;47.892;16.406;2024-01-07T00:38:30;5.70;;;3.40;;
10333;SDS011;5212;47.892;16.406;2024-01-07T00:40:56;5.87;;;3.67;;
10333;SDS011;5212;47.892;16.406;2024-01-07T00:43:22;4.23;;;3.13;;
10333;SDS011;5212;47.892;16.406;2024-01-07T00:45:48;4.60;;;3.10;;
10333;SDS011;5212;47.892;16.406;2024-01-07T00:48:15;4.33;;;3.07;;
10333;SDS011;5212;47.892;16.406;2024-01-07T00:50:41;5.07;;;3.10;;
10333;SDS011;5212;47.892;16.406;2024-01-07T00:53:07;5.20;;;2.87;;
10333;SDS011;5212;47.892;16.406;2024-01-07T00:55:33;5.13;;;3.27;;
10333;SDS011;5212;47.892;16.406;2024-01-07T00:58:00;5.33;;;3.37;;
10333;SDS011;5212;47.892;16.406;2024-01-07T01:00:26;5.53;;;3.20;;
10333;SDS011;5212;47.892;16.406;2024-01-07T01:02:53;3.77;;;2.50;;
10333;SDS011;5212;47.892;16.406;2024-01-07T01:05:20;4.17;;;2.80;;
10333;SDS011;5212;47.892;16.406;2024-01-07T01:07:46;4.47;;;2.73;;
10333;SDS011;5212;47.892;16.406;2024-01-07T01:10:12;4.67;;;2.87;;
10333;SDS011;5212;47.892;16.406;2024-01-07T01:12:40;5.03;;;3.07;;
10333;SDS011;5212;47.892;16.406;2024-01-07T01:15:06;4.97;;;2.77;;
10333;SDS011;5212;47.892;16.406;2024-01-07T01:17:32;4.73;;;3.00;;
10333;SDS011;5212;47.892;16.406;2024-01-07T01:19:58;3.23;;;2.80;;
10333;SDS011;5212;47.892;16.406;2024-01-07T01:22:25;5.20;;;2.83;;
10333;SDS011;5212;47.892;16.406;2024-01-07T01:24:51;6.17;;;3.37;;
10333;SDS011;5212;47.892;16.406;2024-01-07T01:27:18;4.27;;;2.80;;
10333;SDS011;5212;47.892;16.406;2024-01-07T01:29:44;4.30;;;2.93;;
10333;SDS011;5212;47.892;16.406;2024-01-07T01:32:10;5.10;;;2.80;;
10333;SDS011;5212;47.892;16.406;2024-01-07T01:34:36;5.03;;;3.23;;
10333;SDS011;5212;47.892;16.406;2024-01-07T01:37:03;3.50;;;2.67;;
10333;SDS011;5212;47.892;16.406;2024-01-07T01:39:29;3.30;;;2.23;;
10333;SDS011;5212;47.892;16.406;2024-01-07T01:41:55;3.10;;;2.57;;
10333;SDS011;5212;47.892;16.406;2024-01-07T01:44:23;5.60;;;2.77;;
10333;SDS011;5212;47.892;16.406;2024-01-07T01:46:49;3.57;;;2.50;;
10333;SDS011;5212;47.892;16.406;2024-01-07T01:49:15;5.13;;;2.57;;
10333;SDS011;5212;47.892;16.406;2024-01-07T01:51:42;2.83;;;2.13;;
10333;SDS011;5212;47.892;16.406;2024-01-07T01:54:08;2.87;;;2.30;;
10333;SDS011;5212;47.892;16.406;2024-01-07T01:56:35;3.73;;;2.70;;
10333;SDS011;5212;47.892;16.406;2024-01-07T01:59:01;5.30;;;2.87;;
10333;SDS011;5212;47.892;16.406;2024-01-07T02:01:27;4.00;;;2.80;;
10333;SDS011;5212;47.892;16.406;2024-01-07T02:03:53;2.63;;;2.00;;
10333;SDS011;5212;47.892;16.406;2024-01-07T02:06:19;3.20;;;2.60;;
10333;SDS011;5212;47.892;16.406;2024-01-07T02:08:46;2.93;;;2.20;;
10333;SDS011;5212;47.892;16.406;2024-01-07T02:11:14;3.73;;;2.00;;
10333;SDS011;5212;47.892;16.406;2024-01-07T02:13:42;4.57;;;2.40;;
10333;SDS011;5212;47.892;16.406;2024-01-07T02:16:08;4.33;;;2.90;;
10333;SDS011;5212;47.892;16.406;2024-01-07T02:18:34;3.20;;;2.40;;
10333;SDS011;5212;47.892;16.406;2024-01-07T02:21:00;3.57;;;2.60;;
10333;SDS011;5212;47.892;16.406;2024-01-07T02:23:26;3.73;;;2.37;;
10333;SDS011;5212;47.892;16.406;2024-01-07T02:25:52;3.30;;;2.40;;
10333;SDS011;5212;47.892;16.406;2024-01-07T02:28:18;3.17;;;2.20;;
10333;SDS011;5212;47.892;16.406;2024-01-07T02:30:44;4.03;;;2.37;;
10333;SDS011;5212;47.892;16.406;2024-01-07T02:33:10;3.50;;;2.50;;
10333;SDS011;5212;47.892;16.406;2024-01-07T02:35:36;5.50;;;2.90;;
10333;SDS011;5212;47.892;16.406;2024-01-07T02:38:03;3.30;;;2.50;;
10333;SDS011;5212;47.892;16.406;2024-01-07T02:40:29;3.57;;;2.50;;
10333;SDS011;5212;47.892;16.406;2024-01-07T02:42:55;3.77;;;2.70;;
10333;SDS011;5212;47.892;16.406;2024-01-07T02:45:22;2.90;;;2.43;;
10333;SDS011;5212;47.892;16.406;2024-01-07T02:47:48;3.70;;;2.77;;
10333;SDS011;5212;47.892;16.406;2024-01-07T02:50:14;4.77;;;2.93;;
10333;SDS011;5212;47.892;16.406;2024-01-07T02:52:41;3.97;;;2.80;;
10333;SDS011;5212;47.892;16.406;2024-01-07T02:55:07;4.10;;;2.83;;
10333;SDS011;5212;47.892;16.406;2024-01-07T02:57:33;5.00;;;2.90;;
10333;SDS011;5212;47.892;16.406;2024-01-07T03:00:00;3.70;;;2.77;;
10333;SDS011;5212;47.892;16.406;2024-01-07T03:02:26;3.77;;;2.60;;
10333;SDS011;5212;47.892;16.406;2024-01-07T03:04:52;3.37;;;2.47;;
10333;SDS011;5212;47.892;16.406;2024-01-07T03:07:18;4.37;;;3.00;;
10333;SDS011;5212;47.892;16.406;2024-01-07T03:09:44;3.00;;;2.57;;
10333;SDS011;5212;47.892;16.406;2024-01-07T03:12:10;4.43;;;3.00;;
10333;SDS011;5212;47.892;16.406;2024-01-07T03:14:36;3.80;;;2.50;;
10333;SDS011;5212;47.892;16.406;2024-01-07T03:17:03;3.37;;;2.37;;
10333;SDS011;5212;47.892;16.406;2024-01-07T03:19:29;3.77;;;2.73;;
10333;SDS011;5212;47.892;16.406;2024-01-07T03:21:55;3.90;;;2.90;;
10333;SDS011;5212;47.892;16.406;2024-01-07T03:24:21;3.63;;;2.90;;
10333;SDS011;5212;47.892;16.406;2024-01-07T03:26:47;3.53;;;2.70;;
10333;SDS011;5212;47.892;16.406;2024-01-07T03:29:13;3.27;;;2.63;;
10333;SDS011;5212;47.892;16.406;2024-01-07T03:31:39;3.70;;;2.40;;
10333;SDS011;5212;47.892;16.406;2024-01-07T03:34:06;3.87;;;2.90;;
10333;SDS011;5212;47.892;16.406;2024-01-07T03:36:32;3.47;;;2.43;;
10333;SDS011;5212;47.892;16.406;2024-01-07T03:38:58;4.43;;;2.93;;
10333;SDS011;5212;47.892;16.406;2024-01-07T03:41:24;3.53;;;2.70;;
10333;SDS011;5212;47.892;16.406;2024-01-07T03:43:50;5.60;;;2.90;;
10333;SDS011;5212;47.892;16.406;2024-01-07T03:46:16;4.20;;;2.90;;
10333;SDS011;5212;47.892;16.406;2024-01-07T03:48:43;3.70;;;3.27;;
10333;SDS011;5212;47.892;16.406;2024-01-07T03:51:10;5.87;;;3.53;;
10333;SDS011;5212;47.892;16.406;2024-01-07T03:53:36;5.60;;;3.03;;
10333;SDS011;5212;47.892;16.406;2024-01-07T03:56:02;5.00;;;3.17;;
10333;SDS011;5212;47.892;16.406;2024-01-07T03:58:28;5.77;;;3.53;;
10333;SDS011;5212;47.892;16.406;2024-01-07T04:00:54;6.00;;;3.30;;
10333;SDS011;5212;47.892;16.406;2024-01-07T04:03:20;5.03;;;3.30;;
10333;SDS011;5212;47.892;16.406;2024-01-07T04:05:46;4.37;;;2.93;;
10333;SDS011;5212;47.892;16.406;2024-01-07T04:08:13;4.10;;;3.10;;
10333;SDS011;5212;47.892;16.406;2024-01-07T04:10:40;5.07;;;3.30;;
10333;SDS011;5212;47.892;16.406;2024-01-07T04:13:07;5.73;;;3.17;;
10333;SDS011;5212;47.892;16.406;2024-01-07T04:15:33;5.77;;;3.43;;
10333;SDS011;5212;47.892;16.406;2024-01-07T04:18:00;4.97;;;3.30;;
10333;SDS011;5212;47.892;16.406;2024-01-07T04:20:26;3.87;;;3.03;;
10333;SDS011;5212;47.892;16.406;2024-01-07T04:22:52;4.47;;;2.90;;
10333;SDS011;5212;47.892;16.406;2024-01-07T04:25:19;4.33;;;3.17;;
10333;SDS011;5212;47.892;16.406;2024-01-07T04:27:45;6.07;;;3.33;;
10333;SDS011;5212;47.892;16.406;2024-01-07T04:30:11;6.93;;;3.97;;
10333;SDS011;5212;47.892;16.406;2024-01-07T04:32:37;6.03;;;4.07;;
10333;SDS011;5212;47.892;16.406;2024-01-07T04:35:04;6.57;;;4.00;;
10333;SDS011;5212;47.892;16.406;2024-01-07T04:37:32;5.80;;;3.50;;
10333;SDS011;5212;47.892;16.406;2024-01-07T04:39:58;7.17;;;4.90;;
10333;SDS011;5212;47.892;16.406;2024-01-07T04:42:26;6.97;;;4.27;;
10333;SDS011;5212;47.892;16.406;2024-01-07T04:44:52;7.33;;;4.67;;
10333;SDS011;5212;47.892;16.406;2024-01-07T04:47:27;5.67;;;4.07;;
10333;SDS011;5212;47.892;16.406;2024-01-07T04:49:54;6.97;;;4.50;;
10333;SDS011;5212;47.892;16.406;2024-01-07T04:52:21;5.60;;;3.67;;
10333;SDS011;5212;47.892;16.406;2024-01-07T04:54:47;5.13;;;3.53;;
10333;SDS011;5212;47.892;16.406;2024-01-07T04:57:13;5.70;;;3.90;;
10333;SDS011;5212;47.892;16.406;2024-01-07T04:59:40;5.87;;;3.80;;
10333;SDS011;5212;47.892;16.406;2024-01-07T05:02:05;6.00;;;4.07;;
10333;SDS011;5212;47.892;16.406;2024-01-07T05:04:31;6.87;;;4.13;;
10333;SDS011;5212;47.892;16.406;2024-01-07T05:06:57;7.03;;;4.33;;
10333;SDS011;5212;47.892;16.406;2024-01-07T05:09:24;7.33;;;4.63;;
10333;SDS011;5212;47.892;16.406;2024-01-07T05:11:50;7.90;;;4.83;;
10333;SDS011;5212;47.892;16.406;2024-01-07T05:14:16;7.00;;;4.60;;
10333;SDS011;5212;47.892;16.406;2024-01-07T05:16:42;8.13;;;4.47;;
10333;SDS011;5212;47.892;16.406;2024-01-07T05:19:08;7.47;;;4.70;;
10333;SDS011;5212;47.892;16.406;2024-01-07T05:21:34;7.17;;;4.47;;
10333;SDS011;5212;47.892;16.406;2024-01-07T05:24:00;7.03;;;4.57;;
10333;SDS011;5212;47.892;16.406;2024-01-07T05:26:26;7.13;;;4.70;;
10333;SDS011;5212;47.892;16.406;2024-01-07T05:28:52;7.13;;;4.60;;
10333;SDS011;5212;47.892;16.406;2024-01-07T05:31:18;6.67;;;4.23;;
10333;SDS011;5212;47.892;16.406;2024-01-07T05:33:45;6.00;;;4.10;;
10333;SDS011;5212;47.892;16.406;2024-01-07T05:36:11;6.67;;;4.13;;
10333;SDS011;5212;47.892;16.406;2024-01-07T05:38:37;6.30;;;3.90;;
10333;SDS011;5212;47.892;16.406;2024-01-07T05:41:03;6.27;;;4.00;;
10333;SDS011;5212;47.892;16.406;2024-01-07T05:43:29;5.33;;;3.37;;
10333;SDS011;5212;47.892;16.406;2024-01-07T05:45:55;5.43;;;3.80;;
10333;SDS011;5212;47.892;16.406;2024-01-07T05:48:22;5.83;;;3.73;;
10333;SDS011;5212;47.892;16.406;2024-01-07T05:50:48;6.73;;;4.10;;
10333;SDS011;5212;47.892;16.406;2024-01-07T05:53:15;5.50;;;3.67;;
10333;SDS011;5212;47.892;16.406;2024-01-07T05:55:42;5.93;;;3.93;;
10333;SDS011;5212;47.892;16.406;2024-01-07T05:58:08;5.07;;;3.53;;
10333;SDS011;5212;47.892;16.406;2024-01-07T06:00:34;5.83;;;3.87;;
10333;SDS011;5212;47.892;16.406;2024-01-07T06:03:00;5.70;;;3.97;;
10333;SDS011;5212;47.892;16.406;2024-01-07T06:05:26;5.33;;;3.70;;
10333;SDS011;5212;47.892;16.406;2024-01-07T06:07:53;5.60;;;3.50;;
10333;SDS011;5212;47.892;16.406;2024-01-07T06:10:19;4.37;;;3.37;;
10333;SDS011;5212;47.892;16.406;2024-01-07T06:12:46;4.80;;;3.50;;
10333;SDS011;5212;47.892;16.406;2024-01-07T06:15:12;6.00;;;4.07;;
10333;SDS011;5212;47.892;16.406;2024-01-07T06:17:38;4.97;;;3.50;;
10333;SDS011;5212;47.892;16.406;2024-01-07T06:20:04;7.33;;;3.83;;
10333;SDS011;5212;47.892;16.406;2024-01-07T06:22:31;5.80;;;4.30;;
10333;SDS011;5212;47.892;16.406;2024-01-07T06:24:58;6.17;;;4.13;;
10333;SDS011;5212;47.892;16.406;2024-01-07T06:27:25;5.60;;;4.10;;
10333;SDS011;5212;47.892;16.406;2024-01-07T06:29:51;6.23;;;3.83;;
10333;SDS011;5212;47.892;16.406;2024-01-07T06:32:16;5.77;;;3.60;;
10333;SDS011;5212;47.892;16.406;2024-01-07T06:34:42;7.57;;;4.37;;
10333;SDS011;5212;47.892;16.406;2024-01-07T06:37:08;6.97;;;4.20;;
10333;SDS011;5212;47.892;16.406;2024-01-07T06:39:35;6.37;;;4.07;;
10333;SDS011;5212;47.892;16.406;2024-01-07T06:42:02;6.43;;;3.57;;
10333;SDS011;5212;47.892;16.406;2024-01-07T06:44:28;4.90;;;3.60;;
10333;SDS011;5212;47.892;16.406;2024-01-07T06:46:54;6.00;;;3.63;;
10333;SDS011;5212;47.892;16.406;2024-01-07T06:49:20;6.37;;;4.00;;
10333;SDS011;5212;47.892;16.406;2024-01-07T06:51:46;6.10;;;3.83;;
10333;SDS011;5212;47.892;16.406;2024-01-07T06:54:12;7.03;;;4.17;;
10333;SDS011;5212;47.892;16.406;2024-01-07T06:56:38;6.37;;;4.20;;
10333;SDS011;5212;47.892;16.406;2024-01-07T06:59:05;5.00;;;3.63;;
10333;SDS011;5212;47.892;16.406;2024-01-07T07:01:32;6.07;;;3.73;;
10333;SDS011;5212;47.892;16.406;2024-01-07T07:03:58;5.90;;;4.20;;
10333;SDS011;5212;47.892;16.406;2024-01-07T07:06:25;5.40;;;3.70;;
10333;SDS011;5212;47.892;16.406;2024-01-07T07:08:51;5.40;;;3.97;;
10333;SDS011;5212;47.892;16.406;2024-01-07T07:11:17;6.80;;;4.10;;
10333;SDS011;5212;47.892;16.406;2024-01-07T07:13:44;9.50;;;5.30;;
10333;SDS011;5212;47.892;16.406;2024-01-07T07:16:11;8.80;;;5.67;;
10333;SDS011;5212;47.892;16.406;2024-01-07T07:18:37;16.30;;;8.13;;
10333;SDS011;5212;47.892;16.406;2024-01-07T07:21:03;26.57;;;13.20;;
10333;SDS011;5212;47.892;16.406;2024-01-07T07:23:29;19.33;;;12.33;;
10333;SDS011;5212;47.892;16.406;2024-01-07T07:25:55;14.27;;;9.30;;
10333;SDS011;5212;47.892;16.406;2024-01-07T07:28:22;14.60;;;7.93;;
10333;SDS011;5212;47.892;16.406;2024-01-07T07:30:48;9.17;;;4.53;;
10333;SDS011;5212;47.892;16.406;2024-01-07T07:33:14;10.13;;;5.60;;
10333;SDS011;5212;47.892;16.406;2024-01-07T07:35:40;10.57;;;7.30;;
10333;SDS011;5212;47.892;16.406;2024-01-07T07:38:07;8.70;;;5.00;;
10333;SDS011;5212;47.892;16.406;2024-01-07T07:40:33;8.87;;;5.73;;
10333;SDS011;5212;47.892;16.406;2024-01-07T07:42:59;8.07;;;4.60;;
10333;SDS011;5212;47.892;16.406;2024-01-07T07:45:25;6.03;;;4.10;;
10333;SDS011;5212;47.892;16.406;2024-01-07T07:47:51;7.60;;;5.03;;
10333;SDS011;5212;47.892;16.406;2024-01-07T07:50:17;9.83;;;6.23;;
10333;SDS011;5212;47.892;16.406;2024-01-07T07:52:43;5.67;;;4.07;;
10333;SDS011;5212;47.892;16.406;2024-01-07T07:55:09;8.97;;;4.20;;
10333;SDS011;5212;47.892;16.406;2024-01-07T07:57:35;4.20;;;3.37;;
10333;SDS011;5212;47.892;16.406;2024-01-07T08:00:03;7.97;;;4.60;;
10333;SDS011;5212;47.892;16.406;2024-01-07T08:02:30;6.37;;;4.27;;
10333;SDS011;5212;47.892;16.406;2024-01-07T08:04:56;5.87;;;4.10;;
10333;SDS011;5212;47.892;16.406;2024-01-07T08:07:22;6.80;;;3.97;;
10333;SDS011;5212;47.892;16.406;2024-01-07T08:09:48;8.33;;;4.77;;
10333;SDS011;5212;47.892;16.406;2024-01-07T08:12:14;8.53;;;4.87;;
10333;SDS011;5212;47.892;16.406;2024-01-07T08:14:40;7.17;;;4.77;;
10333;SDS011;5212;47.892;16.406;2024-01-07T08:17:06;7.30;;;5.43;;
10333;SDS011;5212;47.892;16.406;2024-01-07T08:19:32;9.00;;;5.03;;
10333;SDS011;5212;47.892;16.406;2024-01-07T08:21:58;8.03;;;4.67;;
10333;SDS011;5212;47.892;16.406;2024-01-07T08:24:25;6.63;;;4.23;;
10333;SDS011;5212;47.892;16.406;2024-01-07T08:26:52;7.33;;;4.67;;
10333;SDS011;5212;47.892;16.406;2024-01-07T08:29:19;6.03;;;4.13;;
10333;SDS011;5212;47.892;16.406;2024-01-07T08:31:45;9.20;;;6.23;;
10333;SDS011;5212;47.892;16.406;2024-01-07T08:34:11;9.17;;;5.73;;
10333;SDS011;5212;47.892;16.406;2024-01-07T08:36:38;15.87;;;8.03;;
10333;SDS011;5212;47.892;16.406;2024-01-07T08:39:04;22.17;;;9.30;;
10333;SDS011;5212;47.892;16.406;2024-01-07T08:41:31;15.33;;;7.63;;
10333;SDS011;5212;47.892;16.406;2024-01-07T08:43:57;9.20;;;4.93;;
10333;SDS011;5212;47.892;16.406;2024-01-07T08:46:23;9.27;;;5.70;;
10333;SDS011;5212;47.892;16.406;2024-01-07T08:48:49;12.53;;;7.37;;
10333;SDS011;5212;47.892;16.406;2024-01-07T08:51:15;9.63;;;5.47;;
10333;SDS011;5212;47.892;16.406;2024-01-07T08:53:41;11.30;;;6.87;;
10333;SDS011;5212;47.892;16.406;2024-01-07T08:56:07;7.07;;;4.40;;
10333;SDS011;5212;47.892;16.406;2024-01-07T08:58:34;8.50;;;5.87;;
10333;SDS011;5212;47.892;16.406;2024-01-07T09:01:00;11.27;;;5.60;;
10333;SDS011;5212;47.892;16.406;2024-01-07T09:03:26;10.00;;;5.87;;
10333;SDS011;5212;47.892;16.406;2024-01-07T09:05:52;7.20;;;4.33;;
10333;SDS011;5212;47.892;16.406;2024-01-07T09:08:18;8.23;;;4.70;;
10333;SDS011;5212;47.892;16.406;2024-01-07T09:10:45;7.83;;;4.87;;
10333;SDS011;5212;47.892;16.406;2024-01-07T09:13:11;7.03;;;4.87;;
10333;SDS011;5212;47.892;16.406;2024-01-07T09:15:37;6.33;;;4.47;;
10333;SDS011;5212;47.892;16.406;2024-01-07T09:18:04;4.73;;;3.50;;
10333;SDS011;5212;47.892;16.406;2024-01-07T09:20:30;6.93;;;4.03;;
10333;SDS011;5212;47.892;16.406;2024-01-07T09:22:56;5.53;;;3.77;;
10333;SDS011;5212;47.892;16.406;2024-01-07T09:25:22;5.63;;;3.67;;
10333;SDS011;5212;47.892;16.406;2024-01-07T09:27:48;5.50;;;4.23;;
10333;SDS011;5212;47.892;16.406;2024-01-07T09:30:14;6.13;;;3.97;;
10333;SDS011;5212;47.892;16.406;2024-01-07T09:32:43;8.47;;;5.10;;
10333;SDS011;5212;47.892;16.406;2024-01-07T09:35:09;8.63;;;5.57;;
10333;SDS011;5212;47.892;16.406;2024-01-07T09:37:35;9.17;;;5.70;;
10333;SDS011;5212;47.892;16.406;2024-01-07T09:40:01;13.90;;;8.43;;
10333;SDS011;5212;47.892;16.406;2024-01-07T09:42:29;14.87;;;7.93;;
10333;SDS011;5212;47.892;16.406;2024-01-07T09:44:55;15.37;;;9.13;;
10333;SDS011;5212;47.892;16.406;2024-01-07T09:47:21;17.23;;;7.23;;
10333;SDS011;5212;47.892;16.406;2024-01-07T09:49:49;8.30;;;5.60;;
10333;SDS011;5212;47.892;16.406;2024-01-07T09:52:15;7.43;;;4.53;;
10333;SDS011;5212;47.892;16.406;2024-01-07T09:54:42;12.37;;;6.67;;
10333;SDS011;5212;47.892;16.406;2024-01-07T09:57:13;9.93;;;6.23;;
10333;SDS011;5212;47.892;16.406;2024-01-07T09:59:39;8.13;;;4.60;;
10333;SDS011;5212;47.892;16.406;2024-01-07T10:02:05;9.33;;;5.53;;
10333;SDS011;5212;47.892;16.406;2024-01-07T10:04:31;13.43;;;7.50;;
10333;SDS011;5212;47.892;16.406;2024-01-07T10:06:58;5.33;;;3.80;;
10333;SDS011;5212;47.892;16.406;2024-01-07T10:09:27;6.67;;;4.07;;
10333;SDS011;5212;47.892;16.406;2024-01-07T10:11:54;7.87;;;4.50;;
10333;SDS011;5212;47.892;16.406;2024-01-07T10:14:20;6.00;;;4.03;;
10333;SDS011;5212;47.892;16.406;2024-01-07T10:16:47;11.30;;;6.67;;
10333;SDS011;5212;47.892;16.406;2024-01-07T10:19:17;8.20;;;5.57;;
10333;SDS011;5212;47.892;16.406;2024-01-07T10:21:45;5.43;;;3.77;;
10333;SDS011;5212;47.892;16.406;2024-01-07T10:24:12;4.67;;;3.23;;
10333;SDS011;5212;47.892;16.406;2024-01-07T10:26:39;5.50;;;3.90;;
10333;SDS011;5212;47.892;16.406;2024-01-07T10:29:06;4.17;;;3.23;;
10333;SDS011;5212;47.892;16.406;2024-01-07T10:31:33;7.47;;;5.00;;
10333;SDS011;5212;47.892;16.406;2024-01-07T10:33:59;5.97;;;3.80;;
10333;SDS011;5212;47.892;16.406;2024-01-07T10:36:25;6.57;;;3.53;;
10333;SDS011;5212;47.892;16.406;2024-01-07T10:38:52;4.87;;;3.43;;
10333;SDS011;5212;47.892;16.406;2024-01-07T10:41:19;11.33;;;5.33;;
10333;SDS011;5212;47.892;16.406;2024-01-07T10:43:46;20.30;;;9.63;;
10333;SDS011;5212;47.892;16.406;2024-01-07T10:46:12;9.87;;;5.90;;
10333;SDS011;5212;47.892;16.406;2024-01-07T10:48:41;14.13;;;6.43;;
10333;SDS011;5212;47.892;16.406;2024-01-07T10:51:12;11.20;;;6.63;;
10333;SDS011;5212;47.892;16.406;2024-01-07T10:53:39;7.93;;;4.53;;
10333;SDS011;5212;47.892;16.406;2024-01-07T10:56:08;8.30;;;4.57;;
10333;SDS011;5212;47.892;16.406;2024-01-07T10:58:38;8.80;;;5.50;;
10333;SDS011;5212;47.892;16.406;2024-01-07T11:01:05;8.40;;;4.97;;
10333;SDS011;5212;47.892;16.406;2024-01-07T11:03:33;6.57;;;4.13;;
10333;SDS011;5212;47.892;16.406;2024-01-07T11:06:03;7.37;;;4.33;;
10333;SDS011;5212;47.892;16.406;2024-01-07T11:08:34;6.80;;;4.17;;
10333;SDS011;5212;47.892;16.406;2024-01-07T11:11:04;6.83;;;4.53;;
10333;SDS011;5212;47.892;16.406;2024-01-07T11:13:33;5.37;;;3.67;;
10333;SDS011;5212;47.892;16.406;2024-01-07T11:16:01;6.03;;;3.67;;
10333;SDS011;5212;47.892;16.406;2024-01-07T11:18:27;5.17;;;3.40;;
10333;SDS011;5212;47.892;16.406;2024-01-07T11:20:58;6.03;;;4.00;;
10333;SDS011;5212;47.892;16.406;2024-01-07T11:23:28;5.97;;;3.67;;
10333;SDS011;5212;47.892;16.406;2024-01-07T11:25:56;4.97;;;3.27;;
10333;SDS011;5212;47.892;16.406;2024-01-07T11:31:14;5.20;;;3.60;;
10333;SDS011;5212;47.892;16.406;2024-01-07T11:33:41;4.90;;;3.40;;
10333;SDS011;5212;47.892;16.406;2024-01-07T11:36:08;6.40;;;3.87;;
10333;SDS011;5212;47.892;16.406;2024-01-07T11:38:34;7.03;;;4.37;;
10333;SDS011;5212;47.892;16.406;2024-01-07T11:41:00;6.63;;;3.90;;
10333;SDS011;5212;47.892;16.406;2024-01-07T11:43:28;6.40;;;3.97;;
10333;SDS011;5212;47.892;16.406;2024-01-07T11:45:54;5.70;;;4.07;;
10333;SDS011;5212;47.892;16.406;2024-01-07T11:48:21;6.40;;;4.20;;
10333;SDS011;5212;47.892;16.406;2024-01-07T11:50:47;5.30;;;3.60;;
10333;SDS011;5212;47.892;16.406;2024-01-07T11:53:13;5.13;;;3.57;;
10333;SDS011;5212;47.892;16.406;2024-01-07T11:55:39;4.77;;;3.57;;
10333;SDS011;5212;47.892;16.406;2024-01-07T11:58:05;6.10;;;3.33;;
10333;SDS011;5212;47.892;16.406;2024-01-07T12:00:32;4.77;;;3.53;;
10333;SDS011;5212;47.892;16.406;2024-01-07T12:02:58;6.13;;;3.67;;
10333;SDS011;5212;47.892;16.406;2024-01-07T12:05:25;7.03;;;4.13;;
10333;SDS011;5212;47.892;16.406;2024-01-07T12:07:51;7.53;;;4.30;;
10333;SDS011;5212;47.892;16.406;2024-01-07T12:10:17;5.90;;;3.70;;
10333;SDS011;5212;47.892;16.406;2024-01-07T12:12:43;7.27;;;3.90;;
10333;SDS011;5212;47.892;16.406;2024-01-07T12:15:09;6.57;;;3.60;;
10333;SDS011;5212;47.892;16.406;2024-01-07T12:17:37;6.13;;;3.83;;
10333;SDS011;5212;47.892;16.406;2024-01-07T12:20:04;9.23;;;4.40;;
10333;SDS011;5212;47.892;16.406;2024-01-07T12:22:32;7.33;;;4.23;;
10333;SDS011;5212;47.892;16.406;2024-01-07T12:25:01;5.97;;;4.00;;
10333;SDS011;5212;47.892;16.406;2024-01-07T12:27:28;10.00;;;5.60;;
10333;SDS011;5212;47.892;16.406;2024-01-07T12:29:54;8.50;;;5.47;;
10333;SDS011;5212;47.892;16.406;2024-01-07T12:32:21;7.60;;;4.27;;
10333;SDS011;5212;47.892;16.406;2024-01-07T12:34:47;6.47;;;4.47;;
10333;SDS011;5212;47.892;16.406;2024-01-07T12:37:13;7.17;;;4.33;;
10333;SDS011;5212;47.892;16.406;2024-01-07T12:39:40;7.50;;;5.20;;
10333;SDS011;5212;47.892;16.406;2024-01-07T12:42:06;6.67;;;4.40;;
10333;SDS011;5212;47.892;16.406;2024-01-07T12:44:33;7.07;;;4.07;;
10333;SDS011;5212;47.892;16.406;2024-01-07T12:46:59;5.77;;;4.30;;
10333;SDS011;5212;47.892;16.406;2024-01-07T12:49:25;8.37;;;4.47;;
10333;SDS011;5212;47.892;16.406;2024-01-07T12:51:51;8.57;;;4.73;;
10333;SDS011;5212;47.892;16.406;2024-01-07T12:54:17;7.87;;;4.90;;
10333;SDS011;5212;47.892;16.406;2024-01-07T12:56:45;6.97;;;4.17;;
10333;SDS011;5212;47.892;16.406;2024-01-07T12:59:11;6.93;;;4.33;;
10333;SDS011;5212;47.892;16.406;2024-01-07T13:01:37;8.30;;;4.80;;
10333;SDS011;5212;47.892;16.406;2024-01-07T13:04:03;7.60;;;4.13;;
10333;SDS011;5212;47.892;16.406;2024-01-07T13:06:29;6.60;;;3.93;;
10333;SDS011;5212;47.892;16.406;2024-01-07T13:08:55;9.00;;;5.03;;
10333;SDS011;5212;47.892;16.406;2024-01-07T13:11:21;6.33;;;4.33;;
10333;SDS011;5212;47.892;16.406;2024-01-07T13:13:48;6.20;;;3.97;;
10333;SDS011;5212;47.892;16.406;2024-01-07T13:16:14;7.20;;;4.07;;
10333;SDS011;5212;47.892;16.406;2024-01-07T13:18:40;4.80;;;3.50;;
10333;SDS011;5212;47.892;16.406;2024-01-07T13:21:06;6.63;;;4.10;;
10333;SDS011;5212;47.892;16.406;2024-01-07T13:23:32;6.00;;;4.07;;
10333;SDS011;5212;47.892;16.406;2024-01-07T13:25:58;6.40;;;4.40;;
10333;SDS011;5212;47.892;16.406;2024-01-07T13:28:27;7.07;;;4.23;;
10333;SDS011;5212;47.892;16.406;2024-01-07T13:30:54;6.53;;;4.67;;
10333;SDS011;5212;47.892;16.406;2024-01-07T13:33:20;6.40;;;4.57;;
10333;SDS011;5212;47.892;16.406;2024-01-07T13:35:46;8.50;;;4.90;;
10333;SDS011;5212;47.892;16.406;2024-01-07T13:38:12;7.27;;;4.77;;
10333;SDS011;5212;47.892;16.406;2024-01-07T13:40:38;6.43;;;4.17;;
10333;SDS011;5212;47.892;16.406;2024-01-07T13:43:04;5.70;;;4.07;;
10333;SDS011;5212;47.892;16.406;2024-01-07T13:45:30;6.17;;;4.50;;
10333;SDS011;5212;47.892;16.406;2024-01-07T13:47:57;7.87;;;5.00;;
10333;SDS011;5212;47.892;16.406;2024-01-07T13:50:23;6.37;;;4.93;;
10333;SDS011;5212;47.892;16.406;2024-01-07T13:52:49;7.10;;;4.70;;
10333;SDS011;5212;47.892;16.406;2024-01-07T13:55:16;7.33;;;5.20;;
10333;SDS011;5212;47.892;16.406;2024-01-07T13:57:42;6.73;;;4.43;;
10333;SDS011;5212;47.892;16.406;2024-01-07T14:00:08;7.37;;;4.97;;
10333;SDS011;5212;47.892;16.406;2024-01-07T14:02:36;7.93;;;4.90;;
10333;SDS011;5212;47.892;16.406;2024-01-07T14:05:04;7.13;;;4.87;;
10333;SDS011;5212;47.892;16.406;2024-01-07T14:07:31;9.10;;;4.77;;
10333;SDS011;5212;47.892;16.406;2024-01-07T14:09:58;6.43;;;4.97;;
10333;SDS011;5212;47.892;16.406;2024-01-07T14:12:24;7.13;;;4.63;;
10333;SDS011;5212;47.892;16.406;2024-01-07T14:14:50;6.60;;;4.53;;
10333;SDS011;5212;47.892;16.406;2024-01-07T14:17:16;5.80;;;4.30;;
10333;SDS011;5212;47.892;16.406;2024-01-07T14:19:42;8.27;;;5.03;;
10333;SDS011;5212;47.892;16.406;2024-01-07T14:22:12;7.50;;;4.33;;
10333;SDS011;5212;47.892;16.406;2024-01-07T14:24:38;8.73;;;4.40;;
10333;SDS011;5212;47.892;16.406;2024-01-07T14:27:04;7.60;;;4.37;;
10333;SDS011;5212;47.892;16.406;2024-01-07T14:29:30;6.13;;;4.43;;
10333;SDS011;5212;47.892;16.406;2024-01-07T14:31:56;8.83;;;5.00;;
10333;SDS011;5212;47.892;16.406;2024-01-07T14:34:22;7.03;;;4.63;;
10333;SDS011;5212;47.892;16.406;2024-01-07T14:36:48;6.93;;;4.20;;
10333;SDS011;5212;47.892;16.406;2024-01-07T14:39:15;8.27;;;4.67;;
10333;SDS011;5212;47.892;16.406;2024-01-07T14:41:41;8.17;;;5.17;;
10333;SDS011;5212;47.892;16.406;2024-01-07T14:44:08;6.53;;;5.10;;